Weather at Cap Skirring Airport

Public forecast

Using degrees Celsius for public forecast. Weather courtesy of forecast.io.

Current aviation weather report (METAR) for Cap Skirring Airport

2024/05/26 16:00 (retrieved 11 minutes ago)

GOGS 261600Z 26004KT 9999 SCT013 30/23 Q1010

Aviation forecast (TAF) for Cap Skirring Airport

2024/05/26 12:30 (retrieved 4 hours ago)

TAF TAF GOGS 261100Z 2612/2712 26006KT 9999 SCT013